createdAt,value
2023-04-14T00:00:46.300Z,12.18
2023-04-14T00:03:13.421Z,12.18
2023-04-14T00:05:40.619Z,12.18
2023-04-14T00:08:07.565Z,12.15
2023-04-14T00:10:34.496Z,12.15
2023-04-14T00:13:02.096Z,12.10
2023-04-14T00:15:29.133Z,12.03
2023-04-14T00:17:57.414Z,11.97
2023-04-14T00:20:24.617Z,11.95
2023-04-14T00:22:51.740Z,11.98
2023-04-14T00:25:19.524Z,12.01
2023-04-14T00:27:46.408Z,12.03
2023-04-14T00:30:13.940Z,12.06
2023-04-14T00:32:40.903Z,12.06
2023-04-14T00:35:09.602Z,12.02
2023-04-14T00:37:36.526Z,11.99
2023-04-14T00:40:03.843Z,11.97
2023-04-14T00:42:31.861Z,11.95
2023-04-14T00:44:58.832Z,11.94
2023-04-14T00:47:26.994Z,11.94
2023-04-14T00:49:53.929Z,11.94
2023-04-14T00:52:25.465Z,11.94
2023-04-14T00:54:52.483Z,11.93
2023-04-14T00:57:19.515Z,11.92
2023-04-14T00:59:46.433Z,11.92
2023-04-14T01:02:13.602Z,11.92
2023-04-14T01:04:53.025Z,11.91
2023-04-14T01:07:25.564Z,11.90
2023-04-14T01:09:55.768Z,11.90
2023-04-14T01:12:38.861Z,11.87
2023-04-14T01:15:17.078Z,11.87
2023-04-14T01:17:53.028Z,11.89
2023-04-14T01:20:29.185Z,11.89
2023-04-14T01:23:06.263Z,11.89
2023-04-14T01:26:20.661Z,11.84
2023-04-14T01:29:44.054Z,11.80
2023-04-14T01:32:21.360Z,11.81
2023-04-14T01:34:55.628Z,11.81
2023-04-14T01:37:30.572Z,11.80
2023-04-14T01:40:03.132Z,11.81
2023-04-14T01:42:36.457Z,11.79
2023-04-14T01:45:11.712Z,11.78
2023-04-14T01:47:42.442Z,11.74
2023-04-14T01:50:13.367Z,11.71
2023-04-14T01:52:44.311Z,11.69
2023-04-14T01:55:15.415Z,11.66
2023-04-14T01:57:46.143Z,11.66
2023-04-14T02:00:16.337Z,11.67
2023-04-14T02:02:48.837Z,11.68
2023-04-14T02:05:18.310Z,11.70
2023-04-14T02:07:47.799Z,11.68
2023-04-14T02:10:17.526Z,11.71
2023-04-14T02:12:45.689Z,11.68
2023-04-14T02:15:17.284Z,11.68
2023-04-14T02:17:49.319Z,11.64
2023-04-14T02:20:17.102Z,11.61
2023-04-14T02:22:44.069Z,11.56
2023-04-14T02:25:11.229Z,11.53
2023-04-14T02:27:48.422Z,11.51
2023-04-14T02:30:22.417Z,11.47
2023-04-14T02:33:01.780Z,11.45
2023-04-14T02:35:37.884Z,11.48
2023-04-14T02:38:13.688Z,11.49
2023-04-14T02:40:43.752Z,11.53
2023-04-14T02:43:18.025Z,11.53
2023-04-14T02:45:49.026Z,11.58
2023-04-14T02:48:21.344Z,11.62
2023-04-14T02:50:53.180Z,11.65
2023-04-14T02:53:24.264Z,11.65
2023-04-14T02:55:54.575Z,11.65
2023-04-14T02:58:22.091Z,11.57
2023-04-14T03:00:52.109Z,11.50
2023-04-14T03:03:21.179Z,11.42
2023-04-14T03:05:48.860Z,11.33
2023-04-14T03:08:16.876Z,11.25
2023-04-14T03:10:48.048Z,11.17
2023-04-14T03:13:17.704Z,11.11
2023-04-14T03:15:46.544Z,11.04
2023-04-14T03:18:15.760Z,10.98
2023-04-14T03:20:45.891Z,10.92
2023-04-14T03:23:18.869Z,10.87
2023-04-14T03:25:47.948Z,10.84
2023-04-14T03:28:22.763Z,10.80
2023-04-14T03:30:54.998Z,10.81
2023-04-14T03:33:28.898Z,10.82
2023-04-14T03:36:00.293Z,10.83
2023-04-14T03:38:28.305Z,10.85
2023-04-14T03:40:59.869Z,10.86
2023-04-14T03:43:29.371Z,10.89
2023-04-14T03:45:58.075Z,10.91
2023-04-14T03:48:29.691Z,10.87
2023-04-14T03:50:59.934Z,10.85
2023-04-14T03:53:31.036Z,10.83
2023-04-14T03:55:59.988Z,10.81
2023-04-14T03:58:31.030Z,10.79
2023-04-14T04:00:59.395Z,10.76
2023-04-14T04:03:28.807Z,10.72
2023-04-14T04:05:57.778Z,10.67
2023-04-14T04:08:25.690Z,10.62
2023-04-14T04:11:07.768Z,10.57
2023-04-14T04:13:41.947Z,10.55
2023-04-14T04:16:13.207Z,10.51
2023-04-14T04:18:46.763Z,10.53
2023-04-14T04:21:19.224Z,10.55
2023-04-14T04:23:52.400Z,10.57
2023-04-14T04:26:19.722Z,10.60
2023-04-14T04:28:47.278Z,10.59
2023-04-14T04:31:15.942Z,10.59
2023-04-14T04:33:45.134Z,10.55
2023-04-14T04:36:13.569Z,10.51
2023-04-14T04:38:42.846Z,10.46
2023-04-14T04:41:21.669Z,10.40
2023-04-14T04:43:48.548Z,10.37
2023-04-14T04:46:39.164Z,10.32
2023-04-14T04:49:06.122Z,10.31
2023-04-14T04:51:33.154Z,10.33
2023-04-14T04:54:01.372Z,10.38
2023-04-14T04:56:28.264Z,10.44
2023-04-14T04:58:55.137Z,10.50
2023-04-14T05:01:22.066Z,10.51
2023-04-14T05:03:49.008Z,10.49
2023-04-14T05:06:16.556Z,10.43
2023-04-14T05:08:43.517Z,10.36
2023-04-14T05:11:11.928Z,10.31
2023-04-14T05:13:38.940Z,10.28
2023-04-14T05:16:09.150Z,10.29
2023-04-14T05:18:36.792Z,10.33
2023-04-14T05:21:04.963Z,10.36
2023-04-14T05:23:34.430Z,10.41
2023-04-14T05:26:16.224Z,10.42
2023-04-14T05:28:49.864Z,10.42
2023-04-14T05:31:16.902Z,10.44
2023-04-14T05:33:43.953Z,10.48
2023-04-14T05:36:11.264Z,10.53
2023-04-14T05:38:42.023Z,10.55
2023-04-14T05:41:09.084Z,10.50
2023-04-14T05:43:36.771Z,10.47
2023-04-14T05:46:05.575Z,10.42
2023-04-14T05:48:33.368Z,10.40
2023-04-14T05:51:00.660Z,10.41
2023-04-14T05:53:27.774Z,10.46
2023-04-14T05:55:56.906Z,10.55
2023-04-14T05:58:26.374Z,10.64
2023-04-14T06:00:53.398Z,10.71
2023-04-14T06:03:21.874Z,10.81
2023-04-14T06:05:50.484Z,10.91
2023-04-14T06:08:18.697Z,11.02
2023-04-14T06:10:45.701Z,11.15
2023-04-14T06:13:12.613Z,11.26
2023-04-14T06:15:39.482Z,11.35
2023-04-14T06:18:06.454Z,11.46
2023-04-14T06:20:36.058Z,11.58
2023-04-14T06:23:03.059Z,11.69
2023-04-14T06:25:30.835Z,11.79
2023-04-14T06:27:57.774Z,11.89
2023-04-14T06:30:25.600Z,11.99
2023-04-14T06:32:54.446Z,12.10
2023-04-14T06:35:32.436Z,12.19
2023-04-14T06:38:02.267Z,12.31
2023-04-14T06:40:29.574Z,12.38
2023-04-14T06:42:56.605Z,12.45
2023-04-14T06:45:23.511Z,12.48
2023-04-14T06:47:50.786Z,12.57
2023-04-14T06:50:17.970Z,12.65
2023-04-14T06:52:44.900Z,12.78
2023-04-14T06:55:13.112Z,12.90
2023-04-14T06:57:40.369Z,12.99
2023-04-14T07:00:10.554Z,13.05
2023-04-14T07:02:56.064Z,13.13
2023-04-14T07:05:29.226Z,13.15
2023-04-14T07:07:56.136Z,13.15
2023-04-14T07:10:24.451Z,13.16
2023-04-14T07:12:51.428Z,13.17
2023-04-14T07:15:18.805Z,13.24
2023-04-14T07:17:45.809Z,13.31
2023-04-14T07:20:13.323Z,13.49
2023-04-14T07:22:40.614Z,14.03
2023-04-14T07:25:08.381Z,14.83
2023-04-14T07:27:36.761Z,15.79
2023-04-14T07:30:04.986Z,16.75
2023-04-14T07:32:32.965Z,17.75
2023-04-14T07:35:00.519Z,18.69
2023-04-14T07:37:27.472Z,19.64
2023-04-14T07:39:54.423Z,20.58
2023-04-14T07:42:21.632Z,21.30
2023-04-14T07:44:49.936Z,21.87
2023-04-14T07:47:19.087Z,22.36
2023-04-14T07:49:46.202Z,22.97
2023-04-14T07:52:13.122Z,23.58
2023-04-14T07:54:40.150Z,24.18
2023-04-14T07:57:09.867Z,25.13
2023-04-14T07:59:38.196Z,25.86
2023-04-14T08:02:07.455Z,26.32
2023-04-14T08:04:34.720Z,26.98
2023-04-14T08:07:01.758Z,27.76
2023-04-14T08:09:28.857Z,28.40
2023-04-14T08:11:57.225Z,28.78
2023-04-14T08:14:24.203Z,29.14
2023-04-14T08:16:51.504Z,29.39
2023-04-14T08:19:19.838Z,29.56
2023-04-14T08:21:47.205Z,29.73
2023-04-14T08:24:14.111Z,29.99
2023-04-14T08:26:41.162Z,30.07
2023-04-14T08:29:08.081Z,30.29
2023-04-14T08:31:35.511Z,30.75
2023-04-14T08:34:03.040Z,31.47
2023-04-14T08:36:31.443Z,31.83
2023-04-14T08:39:00.226Z,31.95
2023-04-14T08:41:32.133Z,31.89
2023-04-14T08:43:59.071Z,31.67
2023-04-14T08:46:28.454Z,31.27
2023-04-14T08:49:04.616Z,31.09
2023-04-14T08:51:36.579Z,31.21
2023-04-14T08:54:10.044Z,31.27
2023-04-14T08:56:39.372Z,31.73
2023-04-14T08:59:07.940Z,31.83
2023-04-14T09:01:36.928Z,31.80
2023-04-14T09:04:05.479Z,31.60
2023-04-14T09:06:35.471Z,31.39
2023-04-14T09:09:05.156Z,31.73
2023-04-14T09:11:32.288Z,32.19
2023-04-14T09:14:00.511Z,32.64
2023-04-14T09:16:28.835Z,33.11
2023-04-14T09:18:58.038Z,33.55
2023-04-14T09:21:52.950Z,33.39
2023-04-14T09:24:30.284Z,32.90
2023-04-14T09:27:01.892Z,32.22
2023-04-14T09:29:29.376Z,31.71
2023-04-14T09:31:56.925Z,31.16
2023-04-14T09:34:23.984Z,31.46
2023-04-14T09:37:05.136Z,32.45
2023-04-14T09:39:32.708Z,33.54
2023-04-14T09:41:59.827Z,34.37
2023-04-14T09:44:26.962Z,34.79
2023-04-14T09:46:59.336Z,35.19
2023-04-14T09:49:26.743Z,35.27
2023-04-14T09:51:57.463Z,35.54
2023-04-14T09:54:26.985Z,35.85
2023-04-14T09:56:54.719Z,36.05
2023-04-14T09:59:33.816Z,36.42
2023-04-14T10:02:04.738Z,36.35
2023-04-14T10:04:32.124Z,34.94
2023-04-14T10:06:59.977Z,33.17
2023-04-14T10:09:30.993Z,31.59
2023-04-14T10:12:12.794Z,30.63
2023-04-14T10:14:41.355Z,30.97
2023-04-14T10:17:09.261Z,31.41
2023-04-14T10:19:37.914Z,32.16
2023-04-14T10:22:06.327Z,31.68
2023-04-14T10:24:34.914Z,30.75
2023-04-14T10:27:03.610Z,30.00
2023-04-14T10:29:31.180Z,29.26
2023-04-14T10:32:05.921Z,28.46
2023-04-14T10:34:35.297Z,28.75
2023-04-14T10:37:13.697Z,30.01
2023-04-14T10:39:42.912Z,29.82
2023-04-14T10:42:10.662Z,29.11
2023-04-14T10:44:38.206Z,28.31
2023-04-14T10:47:08.412Z,27.91
2023-04-14T10:49:39.113Z,27.73
2023-04-14T10:52:33.144Z,28.81
2023-04-14T10:55:09.606Z,30.06
2023-04-14T10:57:40.903Z,31.04
2023-04-14T11:00:24.226Z,32.10
2023-04-14T11:02:57.765Z,32.42
2023-04-14T11:05:25.627Z,32.73
2023-04-14T11:08:00.701Z,32.37
2023-04-14T11:10:32.531Z,32.33
2023-04-14T11:13:05.286Z,32.59
2023-04-14T11:15:50.781Z,32.86
2023-04-14T11:18:32.202Z,32.76
2023-04-14T11:21:06.502Z,31.91
2023-04-14T11:23:35.170Z,30.75
2023-04-14T11:26:06.470Z,29.65
2023-04-14T11:28:35.428Z,29.28
2023-04-14T11:31:05.214Z,29.03
2023-04-14T11:33:35.835Z,29.05
2023-04-14T11:36:05.738Z,28.91
2023-04-14T11:38:35.907Z,29.40
2023-04-14T11:41:04.369Z,30.06
2023-04-14T11:43:31.848Z,30.35
2023-04-14T11:46:03.181Z,29.93
2023-04-14T11:48:33.678Z,29.23
2023-04-14T11:51:03.647Z,28.53
2023-04-14T11:53:32.021Z,27.91
2023-04-14T11:56:00.681Z,27.99
2023-04-14T11:58:29.219Z,28.59
2023-04-14T12:00:59.748Z,28.62
2023-04-14T12:03:28.265Z,28.10
2023-04-14T12:05:58.327Z,27.46
2023-04-14T12:08:25.851Z,26.90
2023-04-14T12:10:54.052Z,26.35
2023-04-14T12:13:21.297Z,25.69
2023-04-14T12:15:50.311Z,25.15
2023-04-14T12:20:52.843Z,25.15
2023-04-14T12:23:20.158Z,25.70
2023-04-14T12:25:50.509Z,25.95
2023-04-14T12:28:18.522Z,25.85
2023-04-14T12:30:54.087Z,25.45
2023-04-14T12:33:23.968Z,25.06
2023-04-14T12:35:51.467Z,24.75
2023-04-14T12:38:18.416Z,24.56
2023-04-14T12:40:47.879Z,24.94
2023-04-14T12:43:18.540Z,25.70
2023-04-14T12:45:48.690Z,26.55
2023-04-14T12:48:18.144Z,27.12
2023-04-14T12:50:45.690Z,27.61
2023-04-14T12:53:32.158Z,27.77
2023-04-14T12:56:08.087Z,28.00
2023-04-14T12:58:37.642Z,28.46
2023-04-14T13:01:06.845Z,28.85
2023-04-14T13:03:46.776Z,28.82
2023-04-14T13:06:16.923Z,28.62
2023-04-14T13:08:44.741Z,28.68
2023-04-14T13:11:12.209Z,28.92
2023-04-14T13:13:39.290Z,29.21
2023-04-14T13:16:15.423Z,29.10
2023-04-14T13:18:45.162Z,28.88
2023-04-14T13:21:12.943Z,28.87
2023-04-14T13:23:40.609Z,28.97
2023-04-14T13:26:07.830Z,29.21
2023-04-14T13:28:35.079Z,29.40
2023-04-14T13:31:02.540Z,29.23
2023-04-14T13:33:29.560Z,28.72
2023-04-14T13:35:57.896Z,28.19
2023-04-14T13:38:24.837Z,27.68
2023-04-14T13:40:51.762Z,27.19
2023-04-14T13:43:18.985Z,26.68
2023-04-14T13:45:46.911Z,26.18
2023-04-14T13:48:14.553Z,25.69
2023-04-14T13:50:42.255Z,25.32
2023-04-14T13:53:12.185Z,25.61
2023-04-14T13:55:39.280Z,26.03
2023-04-14T13:58:06.425Z,25.91
2023-04-14T14:00:33.836Z,25.64
2023-04-14T14:03:01.253Z,25.34
2023-04-14T14:05:29.029Z,25.03
2023-04-14T14:07:57.444Z,24.69
2023-04-14T14:10:25.789Z,24.39
2023-04-14T14:12:53.215Z,24.04
2023-04-14T14:15:20.341Z,23.71
2023-04-14T14:17:47.705Z,23.52
2023-04-14T14:20:14.696Z,23.43
2023-04-14T14:22:41.631Z,23.28
2023-04-14T14:25:19.249Z,23.20
2023-04-14T14:27:51.679Z,23.11
2023-04-14T14:30:18.744Z,22.99
2023-04-14T14:32:45.719Z,22.80
2023-04-14T14:35:12.828Z,22.68
2023-04-14T14:37:40.832Z,22.67
2023-04-14T14:40:09.610Z,22.69
2023-04-14T14:42:36.911Z,22.58
2023-04-14T14:45:06.917Z,22.50
2023-04-14T14:47:34.117Z,22.49
2023-04-14T14:50:04.362Z,22.54
2023-04-14T14:52:34.608Z,22.81
2023-04-14T14:55:01.922Z,23.25
2023-04-14T14:57:30.300Z,23.49
2023-04-14T14:59:57.706Z,23.46
2023-04-14T15:02:26.134Z,23.31
2023-04-14T15:04:54.438Z,23.04
2023-04-14T15:07:21.410Z,22.77
2023-04-14T15:09:50.650Z,22.53
2023-04-14T15:12:18.116Z,22.34
2023-04-14T15:14:45.152Z,22.19
2023-04-14T15:17:12.195Z,22.04
2023-04-14T15:19:42.013Z,21.89
2023-04-14T15:22:09.916Z,21.74
2023-04-14T15:24:36.825Z,21.75
2023-04-14T15:27:04.144Z,22.22
2023-04-14T15:29:31.754Z,22.78
2023-04-14T15:31:58.968Z,23.23
2023-04-14T15:34:27.709Z,23.54
2023-04-14T15:36:56.385Z,23.74
2023-04-14T15:39:23.489Z,23.91
2023-04-14T15:41:51.270Z,24.15
2023-04-14T15:44:18.598Z,24.43
2023-04-14T15:46:46.233Z,24.61
2023-04-14T15:49:13.167Z,24.63
2023-04-14T15:51:40.240Z,24.84
2023-04-14T15:54:08.481Z,24.93
2023-04-14T15:56:35.538Z,24.83
2023-04-14T15:59:02.461Z,24.65
2023-04-14T16:01:29.403Z,24.43
2023-04-14T16:03:56.550Z,24.03
2023-04-14T16:06:23.559Z,23.63
2023-04-14T16:08:50.535Z,23.22
2023-04-14T16:11:19.585Z,22.83
2023-04-14T16:13:46.751Z,22.46
2023-04-14T16:16:15.619Z,22.25
2023-04-14T16:18:42.675Z,22.19
2023-04-14T16:21:09.743Z,22.35
2023-04-14T16:23:36.704Z,22.57
2023-04-14T16:26:03.924Z,22.64
2023-04-14T16:28:32.314Z,22.57
2023-04-14T16:30:59.904Z,22.44
2023-04-14T16:33:27.482Z,22.43
2023-04-14T16:35:56.785Z,22.50
2023-04-14T16:38:23.829Z,22.52
2023-04-14T16:40:56.276Z,22.41
2023-04-14T16:43:24.504Z,22.35
2023-04-14T16:45:52.922Z,22.21
2023-04-14T16:48:20.129Z,22.09
2023-04-14T16:50:47.319Z,22.00
2023-04-14T16:53:14.535Z,21.87
2023-04-14T16:55:42.063Z,21.74
2023-04-14T16:58:09.785Z,21.53
2023-04-14T17:00:37.276Z,21.33
2023-04-14T17:03:06.876Z,21.16
2023-04-14T17:05:34.007Z,20.97
2023-04-14T17:08:00.933Z,20.89
2023-04-14T17:10:29.522Z,20.87
2023-04-14T17:12:56.767Z,20.87
2023-04-14T17:15:23.757Z,20.90
2023-04-14T17:17:50.930Z,20.96
2023-04-14T17:20:19.792Z,21.01
2023-04-14T17:22:48.209Z,21.03
2023-04-14T17:25:19.785Z,21.00
2023-04-14T17:27:48.036Z,20.97
2023-04-14T17:30:15.159Z,20.92
2023-04-14T17:32:42.270Z,20.87
2023-04-14T17:35:10.357Z,20.79
2023-04-14T17:37:38.993Z,20.66
2023-04-14T17:40:10.727Z,20.52
2023-04-14T17:42:38.643Z,20.39
2023-04-14T17:45:08.948Z,20.23
2023-04-14T17:47:38.063Z,20.04
2023-04-14T17:50:06.782Z,19.82
2023-04-14T17:52:35.369Z,19.66
2023-04-14T17:55:04.588Z,19.51
2023-04-14T17:57:31.661Z,19.38
2023-04-14T17:59:59.045Z,19.30
2023-04-14T18:02:26.186Z,19.25
2023-04-14T18:04:53.105Z,19.20
2023-04-14T18:07:20.143Z,19.17
2023-04-14T18:09:47.230Z,19.11
2023-04-14T18:12:15.510Z,19.07
2023-04-14T18:14:44.494Z,19.01
2023-04-14T18:17:11.604Z,18.94
2023-04-14T18:19:39.192Z,18.89
2023-04-14T18:22:06.566Z,18.84
2023-04-14T18:28:02.648Z,18.70
2023-04-14T18:29:54.229Z,18.65
2023-04-14T18:32:22.457Z,18.58
2023-04-14T18:34:49.626Z,18.52
2023-04-14T18:37:16.854Z,18.47
2023-04-14T18:39:45.382Z,18.42
2023-04-14T18:42:12.399Z,18.36
2023-04-14T18:44:39.275Z,18.33
2023-04-14T18:47:07.577Z,18.32
2023-04-14T18:49:34.903Z,18.31
2023-04-14T18:52:02.220Z,18.28
2023-04-14T18:54:29.495Z,18.26
2023-04-14T18:56:56.449Z,18.24
2023-04-14T18:59:23.863Z,18.24
2023-04-14T19:01:50.935Z,18.20
2023-04-14T19:04:19.237Z,18.12
2023-04-14T19:06:48.121Z,18.04
2023-04-14T19:09:15.623Z,17.97
2023-04-14T19:11:42.628Z,17.90
2023-04-14T19:14:09.514Z,17.83
2023-04-14T19:16:36.635Z,17.79
2023-04-14T19:19:04.115Z,17.73
2023-04-14T19:21:32.577Z,17.67
2023-04-14T19:23:59.593Z,17.59
2023-04-14T19:26:27.509Z,17.50
2023-04-14T19:28:57.434Z,17.43
2023-04-14T19:31:25.836Z,17.39
2023-04-14T19:33:52.761Z,17.32
2023-04-14T19:36:19.877Z,17.28
2023-04-14T19:38:48.134Z,17.23
2023-04-14T19:41:15.547Z,17.19
2023-04-14T19:43:42.476Z,17.14
2023-04-14T19:46:12.562Z,17.10
2023-04-14T19:48:40.324Z,17.04
2023-04-14T19:51:07.354Z,16.98
2023-04-14T19:53:34.390Z,16.94
2023-04-14T19:56:05.379Z,16.89
2023-04-14T19:58:32.843Z,16.84
2023-04-14T20:01:00.866Z,16.79
2023-04-14T20:03:28.281Z,16.75
2023-04-14T20:05:57.217Z,16.72
2023-04-14T20:08:25.126Z,16.69
2023-04-14T20:10:54.074Z,16.63
2023-04-14T20:13:24.296Z,16.59
2023-04-14T20:15:53.816Z,16.55
2023-04-14T20:18:22.290Z,16.51
2023-04-14T20:20:49.529Z,16.46
2023-04-14T20:23:16.916Z,16.42
2023-04-14T20:25:44.894Z,16.38
2023-04-14T20:28:11.873Z,16.33
2023-04-14T20:30:40.186Z,16.28
2023-04-14T20:33:07.207Z,16.24
2023-04-14T20:35:36.371Z,16.19
2023-04-14T20:38:03.346Z,16.12
2023-04-14T20:40:31.051Z,16.06
2023-04-14T20:42:58.300Z,16.02
2023-04-14T20:45:25.363Z,15.99
2023-04-14T20:47:53.681Z,15.97
2023-04-14T20:50:21.040Z,15.92
2023-04-14T20:52:48.656Z,15.89
2023-04-14T20:55:18.030Z,15.86
2023-04-14T20:57:46.084Z,15.81
2023-04-14T21:00:16.699Z,15.78
2023-04-14T21:02:44.286Z,15.74
2023-04-14T21:05:15.292Z,15.71
2023-04-14T21:07:43.612Z,15.67
2023-04-14T21:10:12.218Z,15.63
2023-04-14T21:12:54.207Z,15.62
2023-04-14T21:15:51.286Z,15.58
2023-04-14T21:18:13.928Z,15.54
2023-04-14T21:20:43.372Z,15.51
2023-04-14T21:23:10.319Z,15.47
2023-04-14T21:25:37.630Z,15.42
2023-04-14T21:28:05.237Z,15.38
2023-04-14T21:30:32.137Z,15.33
2023-04-14T21:32:59.083Z,15.30
2023-04-14T21:35:26.171Z,15.26
2023-04-14T21:37:54.409Z,15.24
2023-04-14T21:40:21.609Z,15.19
2023-04-14T21:42:49.070Z,15.15
2023-04-14T21:45:16.486Z,15.13
2023-04-14T21:47:43.671Z,15.11
2023-04-14T21:50:11.227Z,15.10
2023-04-14T21:52:38.838Z,15.05
2023-04-14T21:55:09.153Z,15.02
2023-04-14T21:57:48.620Z,14.97
2023-04-14T22:00:17.489Z,14.95
2023-04-14T22:02:44.973Z,14.94
2023-04-14T22:05:12.869Z,14.93
2023-04-14T22:07:39.885Z,14.91
2023-04-14T22:10:09.068Z,14.90
2023-04-14T22:12:36.119Z,14.87
2023-04-14T22:15:04.109Z,14.87
2023-04-14T22:17:31.256Z,14.86
2023-04-14T22:19:59.123Z,14.86
2023-04-14T22:22:26.058Z,14.87
2023-04-14T22:24:54.543Z,14.90
2023-04-14T22:27:23.088Z,14.92
2023-04-14T22:29:50.045Z,14.93
2023-04-14T22:32:17.095Z,14.92
2023-04-14T22:34:44.024Z,14.92
2023-04-14T22:37:11.311Z,14.93
2023-04-14T22:39:38.230Z,14.95
2023-04-14T22:42:05.198Z,14.97
2023-04-14T22:44:33.477Z,14.98
2023-04-14T22:47:01.057Z,14.93
2023-04-14T22:49:28.007Z,14.87
2023-04-14T22:51:54.916Z,14.82
2023-04-14T22:54:22.048Z,14.80
2023-04-14T22:56:48.990Z,14.79
2023-04-14T22:59:16.699Z,14.79
2023-04-14T23:01:44.986Z,14.77
2023-04-14T23:04:12.068Z,14.75
2023-04-14T23:06:39.480Z,14.75
2023-04-14T23:09:06.401Z,14.74
2023-04-14T23:11:33.596Z,14.71
2023-04-14T23:14:00.667Z,14.65
2023-04-14T23:16:27.617Z,14.62
2023-04-14T23:18:56.068Z,14.60
2023-04-14T23:21:23.045Z,14.59
2023-04-14T23:23:50.393Z,14.56
2023-04-14T23:26:19.294Z,14.56
2023-04-14T23:28:46.506Z,14.59
2023-04-14T23:31:13.713Z,14.61
2023-04-14T23:33:40.926Z,14.63
2023-04-14T23:36:09.213Z,14.63
2023-04-14T23:38:36.454Z,14.62
2023-04-14T23:41:03.578Z,14.59
2023-04-14T23:43:30.505Z,14.57
2023-04-14T23:45:57.808Z,14.52
2023-04-14T23:48:25.777Z,14.49
2023-04-14T23:51:00.941Z,14.47
2023-04-14T23:53:41.278Z,14.42
2023-04-14T23:56:08.332Z,14.37
2023-04-14T23:58:35.227Z,14.31
